createdAt,value
2023-08-08T00:00:34.984Z,36.70
2023-08-08T00:01:34.964Z,36.72
2023-08-08T00:02:34.992Z,36.74
2023-08-08T00:03:35.036Z,36.69
2023-08-08T00:04:35.069Z,36.71
2023-08-08T00:05:35.072Z,36.72
2023-08-08T00:06:35.106Z,36.72
2023-08-08T00:07:35.150Z,36.73
2023-08-08T00:08:35.167Z,36.74
2023-08-08T00:09:35.233Z,36.72
2023-08-08T00:10:35.514Z,36.73
2023-08-08T00:11:35.240Z,36.70
2023-08-08T00:12:35.284Z,36.73
2023-08-08T00:13:35.315Z,36.70
2023-08-08T00:14:35.335Z,36.72
2023-08-08T00:15:35.525Z,36.69
2023-08-08T00:16:35.405Z,36.70
2023-08-08T00:17:35.427Z,36.72
2023-08-08T00:18:35.454Z,36.73
2023-08-08T00:19:35.479Z,36.72
2023-08-08T00:20:35.531Z,36.74
2023-08-08T00:21:35.549Z,36.73
2023-08-08T00:22:35.590Z,36.76
2023-08-08T00:23:35.637Z,36.78
2023-08-08T00:24:35.694Z,36.75
2023-08-08T00:25:35.715Z,36.76
2023-08-08T00:26:35.715Z,36.75
2023-08-08T00:27:35.760Z,36.74
2023-08-08T00:28:35.824Z,36.75
2023-08-08T00:29:35.833Z,36.74
2023-08-08T00:30:35.879Z,36.73
2023-08-08T00:31:35.999Z,36.74
2023-08-08T00:32:35.999Z,36.75
2023-08-08T00:33:36.001Z,36.77
2023-08-08T00:34:36.036Z,36.77
2023-08-08T00:35:36.078Z,36.77
2023-08-08T00:36:36.106Z,36.80
2023-08-08T00:37:36.155Z,36.78
2023-08-08T00:38:36.207Z,36.77
2023-08-08T00:39:36.230Z,36.75
2023-08-08T00:40:36.267Z,36.77
2023-08-08T00:41:36.301Z,36.75
2023-08-08T00:42:36.360Z,36.75
2023-08-08T00:43:36.380Z,36.75
2023-08-08T00:44:36.424Z,36.75
2023-08-08T00:45:36.510Z,36.70
2023-08-08T00:46:36.545Z,36.74
2023-08-08T00:47:36.626Z,36.75
2023-08-08T00:48:36.602Z,36.72
2023-08-08T00:49:36.604Z,36.75
2023-08-08T00:50:36.652Z,36.77
2023-08-08T00:51:36.681Z,36.76
2023-08-08T00:52:36.742Z,36.77
2023-08-08T00:53:36.761Z,36.79
2023-08-08T00:54:36.789Z,36.78
2023-08-08T00:55:36.845Z,36.82
2023-08-08T00:56:36.872Z,36.84
2023-08-08T00:57:36.925Z,36.79
2023-08-08T00:58:36.944Z,36.80
2023-08-08T00:59:37.025Z,36.81
2023-08-08T01:00:37.030Z,36.82
2023-08-08T01:01:37.060Z,36.81
2023-08-08T01:02:37.177Z,36.82
2023-08-08T01:03:37.143Z,36.83
2023-08-08T01:04:37.169Z,36.83
2023-08-08T01:05:37.244Z,36.84
2023-08-08T01:06:37.264Z,36.83
2023-08-08T01:07:37.286Z,36.82
2023-08-08T01:08:37.339Z,36.83
2023-08-08T01:09:37.394Z,36.83
2023-08-08T01:10:37.563Z,36.84
2023-08-08T01:11:37.475Z,36.81
2023-08-08T01:12:37.511Z,36.83
2023-08-08T01:13:37.540Z,36.79
2023-08-08T01:14:37.576Z,36.80
2023-08-08T01:15:37.646Z,36.82
2023-08-08T01:16:37.722Z,36.82
2023-08-08T01:17:37.700Z,36.80
2023-08-08T01:18:37.732Z,36.83
2023-08-08T01:19:37.802Z,36.83
2023-08-08T01:20:37.820Z,36.82
2023-08-08T01:21:37.869Z,36.83
2023-08-08T01:22:37.910Z,36.85
2023-08-08T01:23:37.952Z,36.85
2023-08-08T01:24:38.065Z,36.80
2023-08-08T01:25:38.092Z,36.81
2023-08-08T01:26:38.091Z,36.81
2023-08-08T01:27:38.119Z,36.77
2023-08-08T01:28:38.169Z,36.80
2023-08-08T01:29:38.291Z,36.79
2023-08-08T01:30:38.289Z,36.81
2023-08-08T01:31:38.299Z,36.80
2023-08-08T01:32:38.394Z,36.84
2023-08-08T01:33:38.347Z,36.80
2023-08-08T01:34:38.388Z,36.79
2023-08-08T01:35:38.435Z,36.79
2023-08-08T01:36:38.492Z,36.81
2023-08-08T01:37:38.538Z,36.84
2023-08-08T01:38:38.558Z,36.85
2023-08-08T01:39:38.700Z,36.86
2023-08-08T01:40:38.653Z,36.87
2023-08-08T01:41:39.033Z,36.88
2023-08-08T01:42:38.741Z,36.89
2023-08-08T01:43:38.775Z,36.90
2023-08-08T01:44:38.814Z,36.90
2023-08-08T01:45:38.863Z,36.91
2023-08-08T01:46:39.015Z,36.89
2023-08-08T01:47:39.063Z,36.92
2023-08-08T01:48:39.058Z,36.92
2023-08-08T01:49:39.023Z,36.93
2023-08-08T01:50:40.035Z,36.93
2023-08-08T01:51:39.138Z,36.93
2023-08-08T01:52:39.158Z,36.91
2023-08-08T01:53:39.209Z,36.89
2023-08-08T01:54:39.254Z,36.91
2023-08-08T01:55:39.286Z,36.92
2023-08-08T01:56:39.357Z,36.90
2023-08-08T01:57:39.390Z,36.90
2023-08-08T01:58:39.436Z,36.88
2023-08-08T01:59:39.483Z,36.86
2023-08-08T02:00:39.527Z,36.83
2023-08-08T02:01:39.592Z,36.83
2023-08-08T02:02:39.655Z,36.83
2023-08-08T02:03:39.773Z,36.85
2023-08-08T02:04:39.715Z,36.86
2023-08-08T02:05:39.782Z,36.84
2023-08-08T02:06:39.837Z,36.89
2023-08-08T02:07:39.900Z,36.82
2023-08-08T02:08:39.914Z,36.84
2023-08-08T02:09:39.946Z,36.84
2023-08-08T02:10:39.997Z,36.82
2023-08-08T02:11:40.140Z,36.85
2023-08-08T02:12:40.100Z,36.84
2023-08-08T02:13:40.145Z,36.82
2023-08-08T02:14:40.283Z,36.83
2023-08-08T02:15:40.234Z,36.79
2023-08-08T02:16:40.301Z,36.80
2023-08-08T02:17:40.368Z,36.80
2023-08-08T02:18:40.375Z,36.82
2023-08-08T02:19:40.429Z,36.82
2023-08-08T02:20:40.493Z,36.83
2023-08-08T02:21:40.550Z,36.81
2023-08-08T02:22:40.568Z,36.82
2023-08-08T02:23:40.632Z,36.85
2023-08-08T02:24:40.670Z,36.85
2023-08-08T02:25:40.761Z,36.84
2023-08-08T02:26:40.753Z,36.84
2023-08-08T02:27:40.798Z,36.88
2023-08-08T02:28:40.833Z,36.89
2023-08-08T02:29:40.880Z,36.89
2023-08-08T02:30:40.925Z,36.90
2023-08-08T02:31:41.007Z,36.91
2023-08-08T02:32:41.032Z,36.92
2023-08-08T02:33:41.083Z,36.91
2023-08-08T02:34:41.102Z,36.92
2023-08-08T02:35:41.161Z,36.94
2023-08-08T02:36:41.346Z,36.90
2023-08-08T02:37:41.259Z,36.93
2023-08-08T02:38:41.307Z,36.93
2023-08-08T02:39:41.354Z,36.94
2023-08-08T02:40:41.405Z,36.96
2023-08-08T02:41:41.505Z,36.95
2023-08-08T02:42:41.496Z,36.95
2023-08-08T02:43:41.560Z,36.93
2023-08-08T02:44:41.604Z,36.95
2023-08-08T02:45:41.716Z,36.93
2023-08-08T02:46:41.714Z,36.92
2023-08-08T02:47:41.842Z,36.92
2023-08-08T02:48:41.805Z,36.89
2023-08-08T02:49:41.916Z,36.90
2023-08-08T02:50:41.929Z,36.89
2023-08-08T02:51:41.986Z,36.87
2023-08-08T02:52:42.002Z,36.88
2023-08-08T02:53:42.066Z,36.86
2023-08-08T02:54:42.121Z,36.84
2023-08-08T02:55:42.169Z,36.84
2023-08-08T02:56:42.240Z,36.85
2023-08-08T02:57:42.302Z,36.85
2023-08-08T02:58:42.406Z,36.82
2023-08-08T02:59:42.389Z,36.85
2023-08-08T03:00:42.467Z,36.85
2023-08-08T03:01:42.545Z,36.83
2023-08-08T03:02:42.664Z,36.80
2023-08-08T03:03:42.688Z,36.83
2023-08-08T03:04:42.692Z,36.84
2023-08-08T03:05:42.741Z,36.85
2023-08-08T03:06:42.781Z,36.82
2023-08-08T03:07:42.854Z,36.83
2023-08-08T03:08:42.913Z,36.83
2023-08-08T03:09:42.974Z,36.85
2023-08-08T03:10:42.995Z,36.88
2023-08-08T03:11:43.052Z,36.90
2023-08-08T03:12:43.126Z,36.88
2023-08-08T03:13:43.163Z,36.85
2023-08-08T03:14:43.234Z,36.85
2023-08-08T03:15:43.290Z,36.88
2023-08-08T03:16:43.347Z,36.89
2023-08-08T03:17:43.421Z,36.88
2023-08-08T03:18:43.455Z,36.89
2023-08-08T03:19:43.528Z,36.90
2023-08-08T03:20:43.572Z,36.90
2023-08-08T03:21:43.700Z,36.92
2023-08-08T03:22:43.679Z,36.92
2023-08-08T03:23:43.722Z,36.92
2023-08-08T03:24:43.794Z,36.93
2023-08-08T03:25:43.844Z,36.92
2023-08-08T03:26:43.896Z,36.95
2023-08-08T03:27:43.992Z,36.92
2023-08-08T03:28:44.007Z,36.97
2023-08-08T03:29:44.058Z,36.99
2023-08-08T03:30:44.113Z,36.95
2023-08-08T03:31:44.259Z,36.94
2023-08-08T03:32:44.290Z,36.96
2023-08-08T03:33:44.347Z,36.95
2023-08-08T03:34:44.366Z,36.95
2023-08-08T03:35:44.431Z,36.94
2023-08-08T03:36:44.467Z,36.90
2023-08-08T03:37:44.537Z,36.93
2023-08-08T03:38:44.589Z,36.94
2023-08-08T03:39:44.660Z,36.91
2023-08-08T03:40:44.739Z,36.89
2023-08-08T03:41:44.770Z,36.92
2023-08-08T03:42:44.847Z,36.93
2023-08-08T03:43:44.892Z,36.88
2023-08-08T03:44:44.963Z,36.90
2023-08-08T03:45:45.014Z,36.88
2023-08-08T03:46:45.088Z,36.92
2023-08-08T03:47:45.329Z,36.91
2023-08-08T03:48:45.196Z,36.90
2023-08-08T03:49:45.229Z,36.88
2023-08-08T03:50:45.331Z,36.88
2023-08-08T03:51:45.351Z,36.85
2023-08-08T03:52:45.434Z,36.88
2023-08-08T03:53:45.467Z,36.93
2023-08-08T03:54:45.527Z,36.94
2023-08-08T03:55:45.582Z,36.90
2023-08-08T03:56:45.664Z,36.91
2023-08-08T03:57:45.740Z,36.92
2023-08-08T03:58:45.745Z,36.92
2023-08-08T03:59:45.814Z,36.93
2023-08-08T04:00:45.930Z,36.93
2023-08-08T04:01:45.936Z,36.97
2023-08-08T04:02:46.084Z,36.96
2023-08-08T04:03:46.085Z,36.93
2023-08-08T04:04:46.116Z,36.95
2023-08-08T04:05:46.170Z,36.95
2023-08-08T04:06:46.230Z,36.94
2023-08-08T04:07:46.298Z,36.94
2023-08-08T04:08:46.346Z,36.93
2023-08-08T04:09:46.421Z,36.92
2023-08-08T04:10:46.482Z,36.95
2023-08-08T04:11:46.526Z,36.96
2023-08-08T04:12:46.654Z,36.96
2023-08-08T04:13:46.657Z,36.96
2023-08-08T04:14:46.704Z,36.94
2023-08-08T04:15:46.773Z,36.97
2023-08-08T04:16:46.873Z,36.96
2023-08-08T04:17:46.910Z,36.97
2023-08-08T04:18:46.946Z,36.98
2023-08-08T04:19:47.009Z,36.96
2023-08-08T04:20:47.054Z,36.94
2023-08-08T04:21:47.109Z,36.95
2023-08-08T04:22:47.174Z,36.96
2023-08-08T04:23:47.259Z,36.97
2023-08-08T04:24:47.316Z,36.98
2023-08-08T04:25:47.411Z,36.95
2023-08-08T04:26:47.420Z,36.92
2023-08-08T04:27:47.468Z,36.97
2023-08-08T04:28:47.557Z,36.95
2023-08-08T04:29:47.571Z,36.95
2023-08-08T04:30:47.663Z,36.94
2023-08-08T04:31:47.677Z,36.96
2023-08-08T04:32:47.782Z,36.95
2023-08-08T04:33:47.779Z,36.94
2023-08-08T04:34:47.856Z,36.93
2023-08-08T04:35:47.890Z,36.91
2023-08-08T04:36:48.008Z,36.92
2023-08-08T04:37:48.006Z,36.94
2023-08-08T04:38:48.083Z,36.91
2023-08-08T04:39:48.147Z,36.91
2023-08-08T04:40:48.191Z,36.88
2023-08-08T04:41:48.239Z,36.88
2023-08-08T04:42:48.299Z,36.88
2023-08-08T04:43:48.355Z,36.89
2023-08-08T04:44:48.409Z,36.85
2023-08-08T04:45:48.465Z,36.81
2023-08-08T04:46:48.683Z,36.81
2023-08-08T04:47:48.643Z,36.78
2023-08-08T04:48:48.652Z,36.73
2023-08-08T04:49:48.692Z,36.72
2023-08-08T04:50:48.757Z,36.66
2023-08-08T04:51:48.800Z,36.65
2023-08-08T04:52:48.929Z,36.64
2023-08-08T04:53:48.894Z,36.62
2023-08-08T04:54:48.950Z,36.60
2023-08-08T04:55:49.002Z,36.64
2023-08-08T04:56:49.042Z,36.61
2023-08-08T04:57:49.091Z,36.60
2023-08-08T04:58:49.146Z,36.55
2023-08-08T04:59:49.181Z,36.51
2023-08-08T05:00:49.297Z,36.48
2023-08-08T05:01:49.313Z,36.46
2023-08-08T05:02:49.438Z,36.43
2023-08-08T05:03:49.444Z,36.38
2023-08-08T05:04:49.404Z,36.35
2023-08-08T05:05:49.433Z,36.29
2023-08-08T05:06:49.468Z,36.26
2023-08-08T05:07:49.508Z,36.23
2023-08-08T05:08:49.529Z,36.20
2023-08-08T05:09:49.569Z,36.19
2023-08-08T05:10:49.587Z,36.12
2023-08-08T05:11:49.624Z,36.11
2023-08-08T05:12:49.630Z,36.06
2023-08-08T05:13:49.656Z,36.08
2023-08-08T05:14:49.674Z,36.02
2023-08-08T05:15:49.723Z,35.96
2023-08-08T05:16:49.737Z,35.96
2023-08-08T05:17:49.789Z,35.96
2023-08-08T05:18:49.775Z,35.92
2023-08-08T05:19:49.812Z,35.92
2023-08-08T05:20:49.801Z,35.90
2023-08-08T05:21:50.564Z,35.97
2023-08-08T05:22:49.988Z,36.00
2023-08-08T05:23:50.094Z,35.92
2023-08-08T05:24:50.008Z,35.91
2023-08-08T05:25:50.011Z,35.89
2023-08-08T05:26:50.037Z,35.84
2023-08-08T05:27:50.029Z,35.80
2023-08-08T05:28:50.028Z,35.70
2023-08-08T05:29:50.028Z,35.67
2023-08-08T05:30:50.077Z,35.65
2023-08-08T05:31:50.046Z,35.58
2023-08-08T05:32:50.037Z,35.53
2023-08-08T05:33:50.016Z,35.49
2023-08-08T05:34:50.027Z,35.46
2023-08-08T05:35:50.040Z,35.40
2023-08-08T05:36:58.822Z,35.37
2023-08-08T05:37:51.048Z,35.32
2023-08-08T05:38:50.047Z,35.27
2023-08-08T05:39:50.038Z,35.23
2023-08-08T05:40:50.026Z,35.20
2023-08-08T05:41:50.021Z,35.12
2023-08-08T05:42:50.041Z,35.07
2023-08-08T05:43:49.999Z,35.06
2023-08-08T05:44:50.013Z,35.04
2023-08-08T05:45:50.045Z,34.99
2023-08-08T05:46:50.094Z,34.95
2023-08-08T05:47:50.134Z,34.95
2023-08-08T05:48:50.186Z,34.94
2023-08-08T05:49:50.241Z,34.88
2023-08-08T05:50:50.278Z,34.90
2023-08-08T05:51:50.366Z,34.86
2023-08-08T05:52:50.411Z,34.84
2023-08-08T05:53:50.448Z,34.82
2023-08-08T05:54:50.535Z,34.83
2023-08-08T05:55:50.524Z,34.81
2023-08-08T05:56:50.585Z,34.80
2023-08-08T05:57:50.652Z,34.76
2023-08-08T05:58:50.700Z,34.77
2023-08-08T05:59:50.729Z,34.76
2023-08-08T06:00:50.764Z,34.72
2023-08-08T06:01:50.882Z,34.71
2023-08-08T06:02:50.877Z,34.69
2023-08-08T06:03:50.951Z,34.67
2023-08-08T06:04:50.940Z,34.66
2023-08-08T06:05:50.963Z,34.63
2023-08-08T06:06:51.016Z,34.64
2023-08-08T06:07:51.044Z,34.64
2023-08-08T06:08:51.079Z,34.60
2023-08-08T06:09:51.142Z,34.58
2023-08-08T06:10:51.156Z,34.54
2023-08-08T06:11:51.271Z,34.55
2023-08-08T06:12:51.199Z,34.61
2023-08-08T06:13:51.270Z,34.63
2023-08-08T06:14:51.268Z,34.62
2023-08-08T06:15:51.333Z,34.59
2023-08-08T06:16:51.321Z,34.56
2023-08-08T06:17:51.396Z,34.57
2023-08-08T06:18:51.368Z,34.56
2023-08-08T06:19:51.414Z,34.56
2023-08-08T06:20:51.421Z,34.56
2023-08-08T06:21:51.484Z,34.57
2023-08-08T06:22:51.461Z,34.55
2023-08-08T06:23:51.469Z,34.61
2023-08-08T06:24:51.531Z,34.58
2023-08-08T06:25:51.525Z,34.58
2023-08-08T06:26:51.530Z,34.56
2023-08-08T06:27:51.652Z,34.56
2023-08-08T06:28:51.555Z,34.56
2023-08-08T06:29:51.573Z,34.56
2023-08-08T06:30:51.583Z,34.51
2023-08-08T06:31:51.622Z,34.51
2023-08-08T06:32:51.642Z,34.52
2023-08-08T06:33:51.632Z,34.52
2023-08-08T06:34:51.648Z,34.53
2023-08-08T06:35:51.663Z,34.50
2023-08-08T06:36:51.648Z,34.48
2023-08-08T06:37:51.652Z,34.46
2023-08-08T06:38:51.685Z,34.50
2023-08-08T06:39:51.696Z,34.46
2023-08-08T06:40:51.725Z,34.48
2023-08-08T06:41:51.711Z,34.48
2023-08-08T06:42:51.739Z,34.45
2023-08-08T06:43:51.739Z,34.44
2023-08-08T06:44:51.733Z,34.39
2023-08-08T06:45:51.785Z,34.40
2023-08-08T06:46:51.770Z,34.38
2023-08-08T06:47:51.874Z,34.40
2023-08-08T06:48:51.842Z,34.35
2023-08-08T06:49:51.839Z,34.34
2023-08-08T06:50:51.806Z,34.30
2023-08-08T06:51:51.812Z,34.24
2023-08-08T06:52:51.812Z,34.23
2023-08-08T06:53:51.877Z,34.25
2023-08-08T06:54:51.840Z,34.20
2023-08-08T06:55:51.837Z,34.15
2023-08-08T06:56:51.816Z,34.17
2023-08-08T06:57:51.819Z,34.14
2023-08-08T06:58:51.841Z,34.10
2023-08-08T06:59:51.910Z,34.09
2023-08-08T07:00:51.834Z,34.10
2023-08-08T07:01:51.814Z,34.10
2023-08-08T07:02:51.868Z,34.08
2023-08-08T07:03:51.834Z,34.08
2023-08-08T07:04:51.840Z,34.12
2023-08-08T07:05:51.848Z,34.10
2023-08-08T07:06:51.839Z,34.10
2023-08-08T07:07:51.853Z,34.08
2023-08-08T07:08:51.878Z,34.08
2023-08-08T07:09:51.925Z,34.07
2023-08-08T07:10:53.531Z,34.04
2023-08-08T07:11:51.997Z,34.04
2023-08-08T07:12:51.946Z,33.99
2023-08-08T07:13:51.938Z,34.02
2023-08-08T07:14:51.964Z,33.98
2023-08-08T07:15:51.958Z,33.99
2023-08-08T07:16:51.936Z,33.94
2023-08-08T07:17:51.949Z,33.95
2023-08-08T07:18:53.509Z,33.93
2023-08-08T07:19:51.910Z,33.94
2023-08-08T07:20:51.951Z,33.93
2023-08-08T07:21:52.005Z,33.91
2023-08-08T07:22:52.032Z,33.92
2023-08-08T07:23:52.080Z,33.90
2023-08-08T07:24:52.136Z,33.92
2023-08-08T07:25:52.216Z,33.93
2023-08-08T07:26:52.280Z,33.94
2023-08-08T07:27:52.313Z,33.94
2023-08-08T07:28:52.424Z,33.95
2023-08-08T07:29:52.467Z,33.90
2023-08-08T07:30:52.597Z,33.95
2023-08-08T07:31:52.584Z,33.98
2023-08-08T07:32:52.668Z,33.98
2023-08-08T07:33:52.705Z,33.99
2023-08-08T07:34:52.734Z,33.99
2023-08-08T07:35:52.844Z,33.99
2023-08-08T07:36:52.859Z,33.98
2023-08-08T07:37:52.900Z,33.99
2023-08-08T07:38:52.974Z,34.00
2023-08-08T07:39:53.010Z,34.00
2023-08-08T07:40:53.057Z,34.01
2023-08-08T07:41:53.133Z,33.99
2023-08-08T07:42:53.176Z,34.01
2023-08-08T07:43:53.240Z,34.02
2023-08-08T07:44:53.283Z,34.01
2023-08-08T07:45:53.361Z,33.98
2023-08-08T07:46:53.413Z,34.00
2023-08-08T07:47:53.496Z,33.99
2023-08-08T07:48:53.470Z,33.98
2023-08-08T07:49:53.516Z,34.00
2023-08-08T07:50:53.586Z,34.02
2023-08-08T07:51:53.612Z,34.00
2023-08-08T07:52:53.645Z,34.00
2023-08-08T07:53:53.702Z,33.99
2023-08-08T07:54:53.763Z,34.00
2023-08-08T07:55:53.790Z,33.99
2023-08-08T07:56:53.849Z,33.98
2023-08-08T07:57:53.888Z,33.99
2023-08-08T07:58:53.946Z,33.97
2023-08-08T07:59:53.996Z,34.00
2023-08-08T08:00:54.016Z,34.01
2023-08-08T08:01:54.087Z,34.01
2023-08-08T08:02:54.097Z,33.99
2023-08-08T08:03:54.246Z,34.01
2023-08-08T08:04:54.171Z,33.99
2023-08-08T08:05:54.233Z,34.00
2023-08-08T08:06:54.244Z,34.02
2023-08-08T08:07:54.276Z,34.01
2023-08-08T08:08:54.316Z,34.01
2023-08-08T08:09:54.361Z,34.04
2023-08-08T08:10:54.421Z,34.03
2023-08-08T08:11:54.432Z,34.05
2023-08-08T08:12:54.491Z,34.08
2023-08-08T08:13:54.525Z,34.09
2023-08-08T08:14:54.551Z,34.09
2023-08-08T08:15:54.585Z,34.08
2023-08-08T08:16:54.634Z,34.12
2023-08-08T08:17:54.688Z,34.15
2023-08-08T08:18:54.759Z,34.18
2023-08-08T08:19:54.772Z,34.21
2023-08-08T08:20:54.800Z,34.18
2023-08-08T08:21:54.896Z,34.20
2023-08-08T08:22:54.878Z,34.22
2023-08-08T08:23:54.927Z,34.25
2023-08-08T08:24:54.982Z,34.25
2023-08-08T08:25:55.024Z,34.24
2023-08-08T08:26:55.051Z,34.27
2023-08-08T08:27:55.099Z,34.29
2023-08-08T08:28:55.163Z,34.28
2023-08-08T08:29:55.187Z,34.30
2023-08-08T08:30:55.327Z,34.35
2023-08-08T08:31:55.292Z,34.36
2023-08-08T08:32:55.349Z,34.36
2023-08-08T08:33:55.369Z,34.37
2023-08-08T08:34:55.406Z,34.37
2023-08-08T08:35:55.537Z,34.39
2023-08-08T08:36:55.501Z,34.42
2023-08-08T08:37:55.544Z,34.40
2023-08-08T08:38:55.585Z,34.43
2023-08-08T08:39:55.644Z,34.44
2023-08-08T08:40:55.694Z,34.46
2023-08-08T08:41:55.743Z,34.43
2023-08-08T08:42:55.766Z,34.46
2023-08-08T08:43:55.826Z,34.50
2023-08-08T08:44:55.860Z,34.49
2023-08-08T08:45:55.905Z,34.51
2023-08-08T08:46:55.978Z,34.53
2023-08-08T08:47:56.054Z,34.54
2023-08-08T08:48:56.051Z,34.54
2023-08-08T08:49:56.102Z,34.54
2023-08-08T08:50:56.163Z,34.56
2023-08-08T08:51:56.228Z,34.56
2023-08-08T08:52:56.264Z,34.57
2023-08-08T08:53:56.325Z,34.62
2023-08-08T08:54:56.375Z,34.61
2023-08-08T08:55:56.429Z,34.64
2023-08-08T08:56:56.470Z,34.63
2023-08-08T08:57:56.538Z,34.65
2023-08-08T08:58:56.581Z,34.69
2023-08-08T08:59:56.641Z,34.69
2023-08-08T09:00:56.700Z,34.72
2023-08-08T09:01:56.760Z,34.68
2023-08-08T09:02:56.922Z,34.71
2023-08-08T09:03:57.010Z,34.75
2023-08-08T09:04:56.931Z,34.72
2023-08-08T09:05:56.988Z,34.78
2023-08-08T09:06:57.116Z,34.78
2023-08-08T09:07:57.178Z,34.79
2023-08-08T09:09:03.467Z,34.82
2023-08-08T09:09:58.140Z,34.84
2023-08-08T09:10:57.138Z,34.86
2023-08-08T09:11:57.235Z,34.87
2023-08-08T09:12:57.145Z,34.90
2023-08-08T09:13:57.106Z,34.91
2023-08-08T09:14:57.105Z,34.91
2023-08-08T09:15:57.143Z,34.93
2023-08-08T09:16:57.146Z,34.93
2023-08-08T09:17:57.099Z,34.97
2023-08-08T09:18:57.135Z,34.98
2023-08-08T09:19:57.203Z,35.00
2023-08-08T09:20:57.257Z,34.99
2023-08-08T09:21:57.315Z,35.00
2023-08-08T09:22:57.378Z,35.02
2023-08-08T09:23:57.414Z,35.04
2023-08-08T09:24:57.465Z,35.06
2023-08-08T09:25:57.523Z,35.05
2023-08-08T09:26:57.570Z,35.08
2023-08-08T09:27:57.636Z,35.09
2023-08-08T09:28:57.690Z,35.13
2023-08-08T09:29:57.755Z,35.13
2023-08-08T09:30:57.821Z,35.14
2023-08-08T09:31:58.243Z,35.16
2023-08-08T09:32:57.965Z,35.18
2023-08-08T09:33:57.985Z,35.18
2023-08-08T09:34:58.046Z,35.20
2023-08-08T09:35:58.086Z,35.22
2023-08-08T09:36:58.150Z,35.22
2023-08-08T09:37:58.218Z,35.22
2023-08-08T09:38:58.271Z,35.24
2023-08-08T09:39:58.315Z,35.25
2023-08-08T09:40:58.356Z,35.28
2023-08-08T09:41:58.431Z,35.29
2023-08-08T09:42:58.460Z,35.31
2023-08-08T09:43:58.523Z,35.32
2023-08-08T09:44:58.573Z,35.32
2023-08-08T09:45:58.645Z,35.34
2023-08-08T09:46:58.642Z,35.38
2023-08-08T09:47:58.720Z,35.35
2023-08-08T09:48:58.673Z,35.38
2023-08-08T09:49:58.700Z,35.39
2023-08-08T09:50:58.665Z,35.41
2023-08-08T09:51:58.952Z,35.43
2023-08-08T09:52:58.689Z,35.45
2023-08-08T09:53:58.677Z,35.46
2023-08-08T09:54:58.686Z,35.46
2023-08-08T09:55:58.667Z,35.48
2023-08-08T09:56:58.656Z,35.47
2023-08-08T09:57:58.664Z,35.51
2023-08-08T09:58:58.645Z,35.51
2023-08-08T09:59:58.656Z,35.50
2023-08-08T10:00:58.647Z,35.53
2023-08-08T10:01:58.833Z,35.55
2023-08-08T10:02:58.671Z,35.55
2023-08-08T10:03:58.705Z,35.56
2023-08-08T10:04:59.575Z,35.59
2023-08-08T10:05:58.607Z,35.58
2023-08-08T10:06:58.605Z,35.61
2023-08-08T10:07:58.652Z,35.58
2023-08-08T10:08:58.611Z,35.60
2023-08-08T10:09:58.617Z,35.60
2023-08-08T10:10:58.641Z,35.62
2023-08-08T10:11:58.888Z,35.62
2023-08-08T10:12:58.601Z,35.62
2023-08-08T10:13:58.611Z,35.64
2023-08-08T10:14:58.615Z,35.66
2023-08-08T10:15:58.682Z,35.66
2023-08-08T10:16:58.609Z,35.66
2023-08-08T10:17:58.692Z,35.66
2023-08-08T10:18:58.665Z,35.67
2023-08-08T10:19:58.627Z,35.69
2023-08-08T10:20:58.626Z,35.69
2023-08-08T10:21:58.989Z,35.68
2023-08-08T10:23:00.294Z,35.69
2023-08-08T10:23:58.629Z,35.68
2023-08-08T10:24:58.635Z,35.70
2023-08-08T10:25:58.631Z,35.69
2023-08-08T10:26:58.722Z,35.69
2023-08-08T10:27:58.996Z,35.71
2023-08-08T10:28:59.788Z,35.73
2023-08-08T10:29:58.638Z,35.74
2023-08-08T10:30:58.645Z,35.73
2023-08-08T10:31:58.876Z,35.72
2023-08-08T10:32:58.663Z,35.73
2023-08-08T10:33:58.645Z,35.74
2023-08-08T10:34:59.664Z,35.73
2023-08-08T10:35:58.684Z,35.74
2023-08-08T10:36:58.627Z,35.72
2023-08-08T10:37:58.622Z,35.75
2023-08-08T10:38:58.635Z,35.75
2023-08-08T10:39:58.656Z,35.76
2023-08-08T10:40:59.260Z,35.75
2023-08-08T10:41:58.928Z,35.76
2023-08-08T10:42:58.651Z,35.77
2023-08-08T10:43:58.759Z,35.76
2023-08-08T10:44:58.680Z,35.77
2023-08-08T10:46:07.602Z,35.76
2023-08-08T10:47:00.581Z,35.79
2023-08-08T10:47:58.699Z,35.79
2023-08-08T10:48:58.640Z,35.80
2023-08-08T10:49:58.631Z,35.78
2023-08-08T10:50:58.641Z,35.80
2023-08-08T10:51:58.840Z,35.78
2023-08-08T10:52:58.606Z,35.82
2023-08-08T10:53:58.621Z,35.77
2023-08-08T10:54:58.615Z,35.83
2023-08-08T10:55:58.581Z,35.81
2023-08-08T10:56:58.605Z,35.80
2023-08-08T10:57:58.584Z,35.81
2023-08-08T10:58:58.583Z,35.80
2023-08-08T10:59:58.563Z,35.80
2023-08-08T11:00:58.603Z,35.80
2023-08-08T11:01:58.735Z,35.82
2023-08-08T11:02:58.611Z,35.79
2023-08-08T11:03:58.551Z,35.82
2023-08-08T11:05:00.272Z,35.82
2023-08-08T11:05:58.523Z,35.82
2023-08-08T11:06:58.644Z,35.85
2023-08-08T11:07:58.512Z,35.83
2023-08-08T11:08:58.500Z,35.79
2023-08-08T11:09:58.493Z,35.83
2023-08-08T11:10:58.477Z,35.83
2023-08-08T11:11:58.833Z,35.83
2023-08-08T11:12:58.481Z,35.82
2023-08-08T11:13:58.495Z,35.82
2023-08-08T11:14:58.450Z,35.83
2023-08-08T11:15:58.491Z,35.84
2023-08-08T11:16:58.433Z,35.82
2023-08-08T11:17:58.493Z,35.81
2023-08-08T11:18:58.821Z,35.83
2023-08-08T11:19:58.413Z,35.84
2023-08-08T11:21:12.868Z,35.84
2023-08-08T11:21:59.722Z,35.82
2023-08-08T11:22:58.403Z,35.81
2023-08-08T11:23:58.397Z,35.86
2023-08-08T11:24:58.695Z,35.84
2023-08-08T11:26:58.375Z,35.84
2023-08-08T11:27:58.379Z,35.84
2023-08-08T11:28:58.373Z,35.84
2023-08-08T11:29:58.398Z,35.84
2023-08-08T11:30:58.375Z,35.84
2023-08-08T11:31:58.402Z,35.84
2023-08-08T11:33:58.337Z,35.86
2023-08-08T11:34:58.323Z,35.86
2023-08-08T11:35:58.388Z,35.85
2023-08-08T11:36:58.337Z,35.86
2023-08-08T11:37:58.297Z,35.86
2023-08-08T11:38:58.326Z,35.84
2023-08-08T11:39:58.302Z,35.87
2023-08-08T11:40:58.289Z,35.84
2023-08-08T11:41:59.678Z,35.85
2023-08-08T11:42:58.305Z,35.85
2023-08-08T11:43:58.280Z,35.87
2023-08-08T11:44:58.281Z,35.86
2023-08-08T11:45:58.265Z,35.86
2023-08-08T11:46:58.275Z,35.86
2023-08-08T11:47:58.285Z,35.87
2023-08-08T11:48:58.233Z,35.86
2023-08-08T11:49:58.241Z,35.86
2023-08-08T11:50:58.212Z,35.85
2023-08-08T11:51:58.580Z,35.85
2023-08-08T11:52:58.218Z,35.87
2023-08-08T11:53:58.205Z,35.85
2023-08-08T11:54:58.201Z,35.88
2023-08-08T11:55:58.206Z,35.90
2023-08-08T11:56:58.195Z,35.88
2023-08-08T11:57:58.290Z,35.89
2023-08-08T11:58:58.160Z,35.88
2023-08-08T11:59:58.170Z,35.89
2023-08-08T12:00:58.220Z,35.90
2023-08-08T12:01:58.454Z,35.89
2023-08-08T12:02:58.231Z,35.91
2023-08-08T12:03:58.192Z,35.91
2023-08-08T12:04:58.129Z,35.90
2023-08-08T12:05:58.134Z,35.92
2023-08-08T12:06:58.110Z,35.93
2023-08-08T12:07:58.108Z,35.95
2023-08-08T12:08:58.101Z,35.96
2023-08-08T12:09:58.136Z,35.95
2023-08-08T12:10:58.142Z,35.95
2023-08-08T12:11:58.387Z,35.97
2023-08-08T12:12:58.106Z,35.97
2023-08-08T12:13:58.086Z,35.96
2023-08-08T12:16:58.127Z,35.99
2023-08-08T12:17:58.098Z,35.96
2023-08-08T12:18:58.050Z,35.98
2023-08-08T12:19:58.047Z,35.99
2023-08-08T12:20:58.038Z,35.98
2023-08-08T12:21:58.054Z,36.00
2023-08-08T12:22:58.028Z,36.03
2023-08-08T12:23:58.010Z,36.01
2023-08-08T12:24:58.014Z,36.01
2023-08-08T12:25:58.028Z,36.01
2023-08-08T12:26:58.253Z,36.02
2023-08-08T12:27:58.003Z,36.02
2023-08-08T12:28:57.990Z,36.03
2023-08-08T12:29:57.994Z,36.04
2023-08-08T12:30:58.040Z,36.02
2023-08-08T12:31:57.972Z,36.03
2023-08-08T12:32:57.958Z,36.04
2023-08-08T12:33:57.933Z,36.04
2023-08-08T12:34:57.935Z,36.04
2023-08-08T12:35:58.022Z,36.03
2023-08-08T12:36:58.167Z,36.04
2023-08-08T12:37:57.908Z,36.02
2023-08-08T12:38:57.905Z,36.05
2023-08-08T12:39:57.893Z,36.04
2023-08-08T12:40:57.893Z,36.05
2023-08-08T12:41:57.937Z,36.06
2023-08-08T12:42:57.888Z,36.06
2023-08-08T12:43:57.864Z,36.05
2023-08-08T12:44:57.863Z,36.03
2023-08-08T12:45:57.869Z,36.07
2023-08-08T12:46:58.011Z,36.09
2023-08-08T12:47:57.872Z,36.04
2023-08-08T12:48:57.833Z,36.05
2023-08-08T12:49:57.839Z,36.07
2023-08-08T12:50:57.834Z,36.05
2023-08-08T12:51:57.832Z,36.07
2023-08-08T12:52:57.838Z,36.07
2023-08-08T12:53:57.802Z,36.04
2023-08-08T12:54:57.810Z,36.04
2023-08-08T12:55:57.826Z,36.05
2023-08-08T12:56:57.916Z,36.04